sensor_id;sensor_type;location;lat;lon;timestamp;P1;durP1;ratioP1;P2;durP2;ratioP2
23472;SDS011;11909;52.516;13.564;2023-08-21T00:01:58;12.00;;;8.53;;
23472;SDS011;11909;52.516;13.564;2023-08-21T00:04:26;9.60;;;8.23;;
23472;SDS011;11909;52.516;13.564;2023-08-21T00:06:54;9.23;;;7.75;;
23472;SDS011;11909;52.516;13.564;2023-08-21T00:09:22;16.15;;;8.68;;
23472;SDS011;11909;52.516;13.564;2023-08-21T00:11:49;11.88;;;8.57;;
23472;SDS011;11909;52.516;13.564;2023-08-21T00:14:17;11.18;;;8.95;;
23472;SDS011;11909;52.516;13.564;2023-08-21T00:16:46;11.52;;;8.50;;
23472;SDS011;11909;52.516;13.564;2023-08-21T00:19:14;11.68;;;8.18;;
23472;SDS011;11909;52.516;13.564;2023-08-21T00:21:42;10.35;;;8.35;;
23472;SDS011;11909;52.516;13.564;2023-08-21T00:24:09;13.68;;;9.85;;
23472;SDS011;11909;52.516;13.564;2023-08-21T00:26:37;11.57;;;8.55;;
23472;SDS011;11909;52.516;13.564;2023-08-21T00:29:05;14.52;;;9.27;;
23472;SDS011;11909;52.516;13.564;2023-08-21T00:31:32;11.82;;;8.70;;
23472;SDS011;11909;52.516;13.564;2023-08-21T00:34:01;12.88;;;9.35;;
23472;SDS011;11909;52.516;13.564;2023-08-21T00:36:29;11.00;;;9.15;;
23472;SDS011;11909;52.516;13.564;2023-08-21T00:38:57;19.65;;;9.80;;
23472;SDS011;11909;52.516;13.564;2023-08-21T00:41:24;11.50;;;8.43;;
23472;SDS011;11909;52.516;13.564;2023-08-21T00:43:52;10.68;;;8.45;;
23472;SDS011;11909;52.516;13.564;2023-08-21T00:46:20;11.40;;;9.10;;
23472;SDS011;11909;52.516;13.564;2023-08-21T00:48:48;9.98;;;8.60;;
23472;SDS011;11909;52.516;13.564;2023-08-21T00:51:17;12.10;;;9.00;;
23472;SDS011;11909;52.516;13.564;2023-08-21T00:53:45;12.07;;;8.88;;
23472;SDS011;11909;52.516;13.564;2023-08-21T00:56:13;11.02;;;8.63;;
23472;SDS011;11909;52.516;13.564;2023-08-21T00:58:41;11.25;;;9.15;;
23472;SDS011;11909;52.516;13.564;2023-08-21T01:01:09;9.75;;;8.32;;
23472;SDS011;11909;52.516;13.564;2023-08-21T01:03:38;12.38;;;8.32;;
23472;SDS011;11909;52.516;13.564;2023-08-21T01:06:06;13.48;;;9.93;;
23472;SDS011;11909;52.516;13.564;2023-08-21T01:08:39;12.68;;;9.50;;
23472;SDS011;11909;52.516;13.564;2023-08-21T01:11:11;12.82;;;9.25;;
23472;SDS011;11909;52.516;13.564;2023-08-21T01:13:47;11.95;;;9.07;;
23472;SDS011;11909;52.516;13.564;2023-08-21T01:16:22;10.85;;;9.10;;
23472;SDS011;11909;52.516;13.564;2023-08-21T01:18:52;9.93;;;8.73;;
23472;SDS011;11909;52.516;13.564;2023-08-21T01:21:23;9.90;;;8.18;;
23472;SDS011;11909;52.516;13.564;2023-08-21T01:23:53;9.73;;;8.40;;
23472;SDS011;11909;52.516;13.564;2023-08-21T01:26:20;13.00;;;9.10;;
23472;SDS011;11909;52.516;13.564;2023-08-21T01:28:48;9.98;;;8.38;;
23472;SDS011;11909;52.516;13.564;2023-08-21T01:31:18;9.65;;;8.45;;
23472;SDS011;11909;52.516;13.564;2023-08-21T01:33:52;10.93;;;8.95;;
23472;SDS011;11909;52.516;13.564;2023-08-21T01:36:23;12.13;;;9.30;;
23472;SDS011;11909;52.516;13.564;2023-08-21T01:38:54;12.82;;;8.85;;
23472;SDS011;11909;52.516;13.564;2023-08-21T01:41:23;12.00;;;8.50;;
23472;SDS011;11909;52.516;13.564;2023-08-21T01:43:50;16.63;;;9.68;;
23472;SDS011;11909;52.516;13.564;2023-08-21T01:46:19;11.00;;;9.02;;
23472;SDS011;11909;52.516;13.564;2023-08-21T01:48:47;11.85;;;9.00;;
23472;SDS011;11909;52.516;13.564;2023-08-21T01:51:15;12.23;;;8.20;;
23472;SDS011;11909;52.516;13.564;2023-08-21T01:53:42;13.60;;;9.30;;
23472;SDS011;11909;52.516;13.564;2023-08-21T01:56:12;14.68;;;9.32;;
23472;SDS011;11909;52.516;13.564;2023-08-21T01:58:39;10.65;;;9.32;;
23472;SDS011;11909;52.516;13.564;2023-08-21T02:01:07;10.80;;;9.35;;
23472;SDS011;11909;52.516;13.564;2023-08-21T02:03:35;13.27;;;9.35;;
23472;SDS011;11909;52.516;13.564;2023-08-21T02:06:03;10.70;;;8.52;;
23472;SDS011;11909;52.516;13.564;2023-08-21T02:08:31;10.23;;;7.97;;
23472;SDS011;11909;52.516;13.564;2023-08-21T02:11:00;8.93;;;8.00;;
23472;SDS011;11909;52.516;13.564;2023-08-21T02:13:29;10.45;;;8.15;;
23472;SDS011;11909;52.516;13.564;2023-08-21T02:15:59;11.25;;;8.43;;
23472;SDS011;11909;52.516;13.564;2023-08-21T02:18:27;10.48;;;8.07;;
23472;SDS011;11909;52.516;13.564;2023-08-21T02:20:55;12.88;;;9.07;;
23472;SDS011;11909;52.516;13.564;2023-08-21T02:23:23;13.85;;;9.23;;
23472;SDS011;11909;52.516;13.564;2023-08-21T02:25:51;10.70;;;8.57;;
23472;SDS011;11909;52.516;13.564;2023-08-21T02:28:19;12.38;;;9.10;;
23472;SDS011;11909;52.516;13.564;2023-08-21T02:30:48;12.20;;;8.80;;
23472;SDS011;11909;52.516;13.564;2023-08-21T02:33:16;9.43;;;8.32;;
23472;SDS011;11909;52.516;13.564;2023-08-21T02:35:44;9.30;;;7.70;;
23472;SDS011;11909;52.516;13.564;2023-08-21T02:38:12;9.73;;;7.60;;
23472;SDS011;11909;52.516;13.564;2023-08-21T02:40:40;9.40;;;8.40;;
23472;SDS011;11909;52.516;13.564;2023-08-21T02:43:08;13.77;;;9.63;;
23472;SDS011;11909;52.516;13.564;2023-08-21T02:45:36;12.70;;;8.20;;
23472;SDS011;11909;52.516;13.564;2023-08-21T02:48:05;10.65;;;8.63;;
23472;SDS011;11909;52.516;13.564;2023-08-21T02:50:33;8.93;;;8.02;;
23472;SDS011;11909;52.516;13.564;2023-08-21T02:53:01;12.25;;;8.13;;
23472;SDS011;11909;52.516;13.564;2023-08-21T02:55:29;11.10;;;8.45;;
23472;SDS011;11909;52.516;13.564;2023-08-21T02:57:56;10.65;;;8.35;;
23472;SDS011;11909;52.516;13.564;2023-08-21T03:00:24;10.45;;;8.18;;
23472;SDS011;11909;52.516;13.564;2023-08-21T03:02:52;12.40;;;9.43;;
23472;SDS011;11909;52.516;13.564;2023-08-21T03:05:22;13.10;;;9.80;;
23472;SDS011;11909;52.516;13.564;2023-08-21T03:07:49;9.93;;;8.40;;
23472;SDS011;11909;52.516;13.564;2023-08-21T03:10:18;8.75;;;7.85;;
23472;SDS011;11909;52.516;13.564;2023-08-21T03:12:46;9.07;;;7.97;;
23472;SDS011;11909;52.516;13.564;2023-08-21T03:15:15;11.73;;;8.35;;
23472;SDS011;11909;52.516;13.564;2023-08-21T03:17:43;9.70;;;8.02;;
23472;SDS011;11909;52.516;13.564;2023-08-21T03:20:11;11.65;;;8.30;;
23472;SDS011;11909;52.516;13.564;2023-08-21T03:22:40;9.15;;;8.13;;
23472;SDS011;11909;52.516;13.564;2023-08-21T03:25:08;11.93;;;8.70;;
23472;SDS011;11909;52.516;13.564;2023-08-21T03:27:36;10.88;;;8.38;;
23472;SDS011;11909;52.516;13.564;2023-08-21T03:30:06;10.00;;;8.40;;
23472;SDS011;11909;52.516;13.564;2023-08-21T03:32:36;13.55;;;8.88;;
23472;SDS011;11909;52.516;13.564;2023-08-21T03:35:05;9.35;;;8.20;;
23472;SDS011;11909;52.516;13.564;2023-08-21T03:37:33;13.05;;;8.98;;
23472;SDS011;11909;52.516;13.564;2023-08-21T03:40:03;11.43;;;8.30;;
23472;SDS011;11909;52.516;13.564;2023-08-21T03:42:31;11.23;;;8.13;;
23472;SDS011;11909;52.516;13.564;2023-08-21T03:44:59;14.57;;;9.07;;
23472;SDS011;11909;52.516;13.564;2023-08-21T03:47:27;11.15;;;8.88;;
23472;SDS011;11909;52.516;13.564;2023-08-21T03:49:55;12.02;;;8.65;;
23472;SDS011;11909;52.516;13.564;2023-08-21T03:52:23;9.13;;;8.20;;
23472;SDS011;11909;52.516;13.564;2023-08-21T03:54:50;8.73;;;7.82;;
23472;SDS011;11909;52.516;13.564;2023-08-21T03:57:19;13.00;;;9.60;;
23472;SDS011;11909;52.516;13.564;2023-08-21T03:59:48;10.40;;;8.43;;
23472;SDS011;11909;52.516;13.564;2023-08-21T04:02:15;11.88;;;8.70;;
23472;SDS011;11909;52.516;13.564;2023-08-21T04:04:43;12.80;;;10.02;;
23472;SDS011;11909;52.516;13.564;2023-08-21T04:07:11;13.18;;;9.18;;
23472;SDS011;11909;52.516;13.564;2023-08-21T04:09:39;9.65;;;7.70;;
23472;SDS011;11909;52.516;13.564;2023-08-21T04:12:07;12.52;;;9.23;;
23472;SDS011;11909;52.516;13.564;2023-08-21T04:14:37;12.32;;;8.45;;
23472;SDS011;11909;52.516;13.564;2023-08-21T04:17:04;10.50;;;8.82;;
23472;SDS011;11909;52.516;13.564;2023-08-21T04:19:32;15.02;;;8.35;;
23472;SDS011;11909;52.516;13.564;2023-08-21T04:22:00;10.75;;;8.63;;
23472;SDS011;11909;52.516;13.564;2023-08-21T04:24:29;12.55;;;9.32;;
23472;SDS011;11909;52.516;13.564;2023-08-21T04:26:57;11.20;;;7.78;;
23472;SDS011;11909;52.516;13.564;2023-08-21T04:29:24;10.27;;;8.48;;
23472;SDS011;11909;52.516;13.564;2023-08-21T04:31:53;10.57;;;8.10;;
23472;SDS011;11909;52.516;13.564;2023-08-21T04:34:21;11.02;;;8.20;;
23472;SDS011;11909;52.516;13.564;2023-08-21T04:36:49;12.13;;;9.88;;
23472;SDS011;11909;52.516;13.564;2023-08-21T04:39:17;10.80;;;8.80;;
23472;SDS011;11909;52.516;13.564;2023-08-21T04:41:45;10.52;;;8.35;;
23472;SDS011;11909;52.516;13.564;2023-08-21T04:44:13;10.27;;;8.48;;
23472;SDS011;11909;52.516;13.564;2023-08-21T04:46:40;10.82;;;8.38;;
23472;SDS011;11909;52.516;13.564;2023-08-21T04:49:09;11.55;;;9.30;;
23472;SDS011;11909;52.516;13.564;2023-08-21T04:51:37;19.20;;;8.88;;
23472;SDS011;11909;52.516;13.564;2023-08-21T04:54:05;9.48;;;8.48;;
23472;SDS011;11909;52.516;13.564;2023-08-21T04:56:33;14.95;;;8.73;;
23472;SDS011;11909;52.516;13.564;2023-08-21T04:59:01;13.80;;;8.85;;
23472;SDS011;11909;52.516;13.564;2023-08-21T05:01:29;14.35;;;9.23;;
23472;SDS011;11909;52.516;13.564;2023-08-21T05:03:57;10.60;;;8.50;;
23472;SDS011;11909;52.516;13.564;2023-08-21T05:06:26;9.52;;;7.95;;
23472;SDS011;11909;52.516;13.564;2023-08-21T05:08:54;10.40;;;9.00;;
23472;SDS011;11909;52.516;13.564;2023-08-21T05:11:22;10.48;;;7.88;;
23472;SDS011;11909;52.516;13.564;2023-08-21T05:13:51;9.15;;;7.93;;
23472;SDS011;11909;52.516;13.564;2023-08-21T05:16:19;12.23;;;7.97;;
23472;SDS011;11909;52.516;13.564;2023-08-21T05:18:47;11.30;;;8.48;;
23472;SDS011;11909;52.516;13.564;2023-08-21T05:21:15;10.07;;;7.53;;
23472;SDS011;11909;52.516;13.564;2023-08-21T05:23:44;15.55;;;8.90;;
23472;SDS011;11909;52.516;13.564;2023-08-21T05:26:12;12.10;;;7.57;;
23472;SDS011;11909;52.516;13.564;2023-08-21T05:28:40;10.18;;;8.15;;
23472;SDS011;11909;52.516;13.564;2023-08-21T05:31:07;9.90;;;8.05;;
23472;SDS011;11909;52.516;13.564;2023-08-21T05:33:35;9.88;;;7.60;;
23472;SDS011;11909;52.516;13.564;2023-08-21T05:36:03;10.52;;;7.70;;
23472;SDS011;11909;52.516;13.564;2023-08-21T05:38:32;11.23;;;8.20;;
23472;SDS011;11909;52.516;13.564;2023-08-21T05:41:01;10.60;;;7.25;;
23472;SDS011;11909;52.516;13.564;2023-08-21T05:43:29;8.73;;;7.82;;
23472;SDS011;11909;52.516;13.564;2023-08-21T05:45:57;12.20;;;8.50;;
23472;SDS011;11909;52.516;13.564;2023-08-21T05:48:25;12.70;;;8.00;;
23472;SDS011;11909;52.516;13.564;2023-08-21T05:50:53;12.82;;;8.32;;
23472;SDS011;11909;52.516;13.564;2023-08-21T05:53:21;12.95;;;8.75;;
23472;SDS011;11909;52.516;13.564;2023-08-21T05:55:49;13.18;;;8.43;;
23472;SDS011;11909;52.516;13.564;2023-08-21T05:58:18;8.85;;;7.90;;
23472;SDS011;11909;52.516;13.564;2023-08-21T06:00:46;9.45;;;7.78;;
23472;SDS011;11909;52.516;13.564;2023-08-21T06:03:14;10.10;;;8.15;;
23472;SDS011;11909;52.516;13.564;2023-08-21T06:05:42;13.02;;;10.95;;
23472;SDS011;11909;52.516;13.564;2023-08-21T06:08:10;10.13;;;8.48;;
23472;SDS011;11909;52.516;13.564;2023-08-21T06:10:38;13.07;;;8.48;;
23472;SDS011;11909;52.516;13.564;2023-08-21T06:13:06;12.70;;;8.55;;
23472;SDS011;11909;52.516;13.564;2023-08-21T06:15:35;12.68;;;8.07;;
23472;SDS011;11909;52.516;13.564;2023-08-21T06:18:04;9.63;;;7.75;;
23472;SDS011;11909;52.516;13.564;2023-08-21T06:20:31;10.75;;;7.85;;
23472;SDS011;11909;52.516;13.564;2023-08-21T06:23:00;12.60;;;7.78;;
23472;SDS011;11909;52.516;13.564;2023-08-21T06:25:27;12.38;;;8.43;;
23472;SDS011;11909;52.516;13.564;2023-08-21T06:27:56;9.80;;;7.35;;
23472;SDS011;11909;52.516;13.564;2023-08-21T06:30:25;8.30;;;7.20;;
23472;SDS011;11909;52.516;13.564;2023-08-21T06:32:54;10.57;;;7.13;;
23472;SDS011;11909;52.516;13.564;2023-08-21T06:35:23;11.88;;;7.90;;
23472;SDS011;11909;52.516;13.564;2023-08-21T06:37:51;12.10;;;7.90;;
23472;SDS011;11909;52.516;13.564;2023-08-21T06:40:21;16.92;;;8.57;;
23472;SDS011;11909;52.516;13.564;2023-08-21T06:42:48;9.75;;;7.35;;
23472;SDS011;11909;52.516;13.564;2023-08-21T06:45:17;9.65;;;7.97;;
23472;SDS011;11909;52.516;13.564;2023-08-21T06:47:45;11.05;;;7.63;;
23472;SDS011;11909;52.516;13.564;2023-08-21T06:50:15;8.80;;;7.15;;
23472;SDS011;11909;52.516;13.564;2023-08-21T06:52:42;8.75;;;7.22;;
23472;SDS011;11909;52.516;13.564;2023-08-21T06:55:10;11.52;;;7.05;;
23472;SDS011;11909;52.516;13.564;2023-08-21T06:57:38;13.70;;;9.25;;
23472;SDS011;11909;52.516;13.564;2023-08-21T07:00:07;10.20;;;7.32;;
23472;SDS011;11909;52.516;13.564;2023-08-21T07:02:36;7.88;;;7.05;;
23472;SDS011;11909;52.516;13.564;2023-08-21T07:05:04;10.50;;;7.75;;
23472;SDS011;11909;52.516;13.564;2023-08-21T07:10:03;9.15;;;7.55;;
23472;SDS011;11909;52.516;13.564;2023-08-21T07:12:32;9.80;;;7.25;;
23472;SDS011;11909;52.516;13.564;2023-08-21T07:15:00;10.15;;;7.25;;
23472;SDS011;11909;52.516;13.564;2023-08-21T07:17:28;13.50;;;9.80;;
23472;SDS011;11909;52.516;13.564;2023-08-21T07:19:56;12.32;;;7.78;;
23472;SDS011;11909;52.516;13.564;2023-08-21T07:22:24;8.13;;;6.90;;
23472;SDS011;11909;52.516;13.564;2023-08-21T07:24:53;10.07;;;6.32;;
23472;SDS011;11909;52.516;13.564;2023-08-21T07:27:21;10.18;;;6.15;;
23472;SDS011;11909;52.516;13.564;2023-08-21T07:29:49;11.73;;;6.95;;
23472;SDS011;11909;52.516;13.564;2023-08-21T07:32:17;8.07;;;6.57;;
23472;SDS011;11909;52.516;13.564;2023-08-21T07:34:45;10.00;;;6.63;;
23472;SDS011;11909;52.516;13.564;2023-08-21T07:37:13;8.23;;;6.47;;
23472;SDS011;11909;52.516;13.564;2023-08-21T07:39:40;9.93;;;6.50;;
23472;SDS011;11909;52.516;13.564;2023-08-21T07:42:11;9.95;;;6.07;;
23472;SDS011;11909;52.516;13.564;2023-08-21T07:44:39;13.40;;;6.32;;
23472;SDS011;11909;52.516;13.564;2023-08-21T07:47:07;9.43;;;6.00;;
23472;SDS011;11909;52.516;13.564;2023-08-21T07:49:35;10.88;;;6.47;;
23472;SDS011;11909;52.516;13.564;2023-08-21T07:52:04;7.25;;;6.00;;
23472;SDS011;11909;52.516;13.564;2023-08-21T07:54:32;8.45;;;5.90;;
23472;SDS011;11909;52.516;13.564;2023-08-21T07:57:00;8.63;;;6.05;;
23472;SDS011;11909;52.516;13.564;2023-08-21T08:03:16;9.63;;;5.00;;
23472;SDS011;11909;52.516;13.564;2023-08-21T08:05:45;7.40;;;4.30;;
23472;SDS011;11909;52.516;13.564;2023-08-21T08:08:21;7.95;;;4.40;;
23472;SDS011;11909;52.516;13.564;2023-08-21T08:10:48;6.97;;;3.92;;
23472;SDS011;11909;52.516;13.564;2023-08-21T08:13:16;7.85;;;4.63;;
23472;SDS011;11909;52.516;13.564;2023-08-21T08:15:44;7.80;;;3.85;;
23472;SDS011;11909;52.516;13.564;2023-08-21T08:18:12;5.65;;;3.95;;
23472;SDS011;11909;52.516;13.564;2023-08-21T08:20:42;5.78;;;4.00;;
23472;SDS011;11909;52.516;13.564;2023-08-21T08:23:10;5.32;;;3.55;;
23472;SDS011;11909;52.516;13.564;2023-08-21T08:25:38;12.88;;;9.13;;
23472;SDS011;11909;52.516;13.564;2023-08-21T08:28:06;15.90;;;9.15;;
23472;SDS011;11909;52.516;13.564;2023-08-21T08:30:34;9.32;;;5.93;;
23472;SDS011;11909;52.516;13.564;2023-08-21T08:33:02;8.13;;;3.25;;
23472;SDS011;11909;52.516;13.564;2023-08-21T08:35:30;6.80;;;3.05;;
23472;SDS011;11909;52.516;13.564;2023-08-21T08:37:59;4.75;;;2.90;;
23472;SDS011;11909;52.516;13.564;2023-08-21T08:40:27;6.75;;;3.20;;
23472;SDS011;11909;52.516;13.564;2023-08-21T08:42:55;5.78;;;2.85;;
23472;SDS011;11909;52.516;13.564;2023-08-21T08:45:24;5.57;;;2.35;;
23472;SDS011;11909;52.516;13.564;2023-08-21T08:47:58;4.25;;;2.60;;
23472;SDS011;11909;52.516;13.564;2023-08-21T08:50:29;5.60;;;2.63;;
23472;SDS011;11909;52.516;13.564;2023-08-21T08:53:00;7.03;;;3.20;;
23472;SDS011;11909;52.516;13.564;2023-08-21T08:55:41;7.38;;;3.00;;
23472;SDS011;11909;52.516;13.564;2023-08-21T08:58:09;10.63;;;7.65;;
23472;SDS011;11909;52.516;13.564;2023-08-21T09:00:37;9.73;;;6.72;;
23472;SDS011;11909;52.516;13.564;2023-08-21T09:03:05;6.45;;;3.28;;
23472;SDS011;11909;52.516;13.564;2023-08-21T09:05:35;7.78;;;3.00;;
23472;SDS011;11909;52.516;13.564;2023-08-21T09:08:08;6.30;;;2.80;;
23472;SDS011;11909;52.516;13.564;2023-08-21T09:10:37;6.80;;;2.53;;
23472;SDS011;11909;52.516;13.564;2023-08-21T09:13:09;4.93;;;2.30;;
23472;SDS011;11909;52.516;13.564;2023-08-21T09:15:40;5.65;;;2.38;;
23472;SDS011;11909;52.516;13.564;2023-08-21T09:18:10;6.45;;;2.30;;
23472;SDS011;11909;52.516;13.564;2023-08-21T09:20:38;3.58;;;2.25;;
23472;SDS011;11909;52.516;13.564;2023-08-21T09:23:08;4.10;;;2.22;;
23472;SDS011;11909;52.516;13.564;2023-08-21T09:25:40;5.75;;;2.63;;
23472;SDS011;11909;52.516;13.564;2023-08-21T09:28:10;4.95;;;2.60;;
23472;SDS011;11909;52.516;13.564;2023-08-21T09:30:46;4.88;;;1.80;;
23472;SDS011;11909;52.516;13.564;2023-08-21T09:33:17;3.80;;;1.60;;
23472;SDS011;11909;52.516;13.564;2023-08-21T09:35:46;3.05;;;1.42;;
23472;SDS011;11909;52.516;13.564;2023-08-21T09:38:16;2.40;;;1.33;;
23472;SDS011;11909;52.516;13.564;2023-08-21T09:40:49;1.75;;;1.42;;
23472;SDS011;11909;52.516;13.564;2023-08-21T09:43:18;3.25;;;1.70;;
23472;SDS011;11909;52.516;13.564;2023-08-21T09:45:48;3.83;;;1.60;;
23472;SDS011;11909;52.516;13.564;2023-08-21T09:48:19;3.45;;;1.30;;
23472;SDS011;11909;52.516;13.564;2023-08-21T09:53:19;3.28;;;1.30;;
23472;SDS011;11909;52.516;13.564;2023-08-21T09:55:49;3.20;;;1.20;;
23472;SDS011;11909;52.516;13.564;2023-08-21T09:58:20;2.03;;;1.17;;
23472;SDS011;11909;52.516;13.564;2023-08-21T10:00:49;2.70;;;0.93;;
23472;SDS011;11909;52.516;13.564;2023-08-21T10:03:19;3.60;;;1.17;;
23472;SDS011;11909;52.516;13.564;2023-08-21T10:05:49;5.80;;;1.20;;
23472;SDS011;11909;52.516;13.564;2023-08-21T10:08:21;4.20;;;1.23;;
23472;SDS011;11909;52.516;13.564;2023-08-21T10:10:52;5.30;;;1.38;;
23472;SDS011;11909;52.516;13.564;2023-08-21T10:13:20;5.13;;;1.10;;
23472;SDS011;11909;52.516;13.564;2023-08-21T10:15:48;7.50;;;1.23;;
23472;SDS011;11909;52.516;13.564;2023-08-21T10:18:20;4.18;;;1.67;;
23472;SDS011;11909;52.516;13.564;2023-08-21T10:20:50;2.92;;;1.30;;
23472;SDS011;11909;52.516;13.564;2023-08-21T10:23:30;3.90;;;1.35;;
23472;SDS011;11909;52.516;13.564;2023-08-21T10:25:59;3.95;;;1.20;;
23472;SDS011;11909;52.516;13.564;2023-08-21T10:28:47;13.27;;;8.95;;
23472;SDS011;11909;52.516;13.564;2023-08-21T10:31:26;4.78;;;2.22;;
23472;SDS011;11909;52.516;13.564;2023-08-21T10:33:55;4.20;;;1.45;;
23472;SDS011;11909;52.516;13.564;2023-08-21T10:36:39;4.10;;;1.27;;
23472;SDS011;11909;52.516;13.564;2023-08-21T10:39:29;2.35;;;1.23;;
23472;SDS011;11909;52.516;13.564;2023-08-21T10:42:01;3.28;;;1.08;;
23472;SDS011;11909;52.516;13.564;2023-08-21T10:44:34;3.80;;;1.20;;
23472;SDS011;11909;52.516;13.564;2023-08-21T10:47:17;5.05;;;1.10;;
23472;SDS011;11909;52.516;13.564;2023-08-21T10:49:46;3.27;;;1.33;;
23472;SDS011;11909;52.516;13.564;2023-08-21T10:52:17;3.55;;;1.30;;
23472;SDS011;11909;52.516;13.564;2023-08-21T10:54:52;3.88;;;1.30;;
23472;SDS011;11909;52.516;13.564;2023-08-21T10:57:21;2.05;;;1.10;;
23472;SDS011;11909;52.516;13.564;2023-08-21T10:59:51;2.85;;;1.27;;
23472;SDS011;11909;52.516;13.564;2023-08-21T11:02:20;4.57;;;1.13;;
23472;SDS011;11909;52.516;13.564;2023-08-21T11:04:48;2.20;;;0.98;;
23472;SDS011;11909;52.516;13.564;2023-08-21T11:07:17;4.53;;;1.52;;
23472;SDS011;11909;52.516;13.564;2023-08-21T11:09:45;2.33;;;1.00;;
23472;SDS011;11909;52.516;13.564;2023-08-21T11:12:14;2.95;;;1.20;;
23472;SDS011;11909;52.516;13.564;2023-08-21T11:14:44;5.72;;;1.23;;
23472;SDS011;11909;52.516;13.564;2023-08-21T11:17:12;6.03;;;1.13;;
23472;SDS011;11909;52.516;13.564;2023-08-21T11:19:42;2.95;;;1.20;;
23472;SDS011;11909;52.516;13.564;2023-08-21T11:22:10;2.85;;;1.35;;
23472;SDS011;11909;52.516;13.564;2023-08-21T11:24:43;5.15;;;1.40;;
23472;SDS011;11909;52.516;13.564;2023-08-21T11:27:12;4.30;;;1.27;;
23472;SDS011;11909;52.516;13.564;2023-08-21T11:29:43;3.30;;;1.30;;
23472;SDS011;11909;52.516;13.564;2023-08-21T11:32:12;4.05;;;1.33;;
23472;SDS011;11909;52.516;13.564;2023-08-21T11:34:41;4.80;;;1.20;;
23472;SDS011;11909;52.516;13.564;2023-08-21T11:37:10;5.45;;;2.13;;
23472;SDS011;11909;52.516;13.564;2023-08-21T11:39:39;9.30;;;5.55;;
23472;SDS011;11909;52.516;13.564;2023-08-21T11:44:46;4.40;;;1.40;;
23472;SDS011;11909;52.516;13.564;2023-08-21T11:47:15;4.85;;;1.20;;
23472;SDS011;11909;52.516;13.564;2023-08-21T11:49:45;6.23;;;1.50;;
23472;SDS011;11909;52.516;13.564;2023-08-21T11:54:47;3.42;;;1.02;;
23472;SDS011;11909;52.516;13.564;2023-08-21T11:57:15;4.10;;;1.63;;
23472;SDS011;11909;52.516;13.564;2023-08-21T11:59:50;4.03;;;1.20;;
23472;SDS011;11909;52.516;13.564;2023-08-21T12:02:19;5.93;;;1.40;;
23472;SDS011;11909;52.516;13.564;2023-08-21T12:04:54;2.28;;;1.35;;
23472;SDS011;11909;52.516;13.564;2023-08-21T12:07:22;4.20;;;1.33;;
23472;SDS011;11909;52.516;13.564;2023-08-21T12:09:50;9.48;;;5.20;;
23472;SDS011;11909;52.516;13.564;2023-08-21T12:12:17;8.50;;;1.90;;
23472;SDS011;11909;52.516;13.564;2023-08-21T12:14:46;3.70;;;1.55;;
23472;SDS011;11909;52.516;13.564;2023-08-21T12:17:15;5.63;;;1.80;;
23472;SDS011;11909;52.516;13.564;2023-08-21T12:19:43;2.83;;;1.38;;
23472;SDS011;11909;52.516;13.564;2023-08-21T12:22:11;3.05;;;1.48;;
23472;SDS011;11909;52.516;13.564;2023-08-21T12:24:39;3.28;;;1.48;;
23472;SDS011;11909;52.516;13.564;2023-08-21T12:27:07;6.03;;;1.60;;
23472;SDS011;11909;52.516;13.564;2023-08-21T12:29:35;2.65;;;1.13;;
23472;SDS011;11909;52.516;13.564;2023-08-21T12:32:03;6.35;;;1.60;;
23472;SDS011;11909;52.516;13.564;2023-08-21T12:34:33;4.47;;;1.63;;
23472;SDS011;11909;52.516;13.564;2023-08-21T12:37:01;4.38;;;1.40;;
23472;SDS011;11909;52.516;13.564;2023-08-21T12:39:30;2.25;;;1.40;;
23472;SDS011;11909;52.516;13.564;2023-08-21T12:41:57;4.03;;;1.42;;
23472;SDS011;11909;52.516;13.564;2023-08-21T12:44:25;4.70;;;1.30;;
23472;SDS011;11909;52.516;13.564;2023-08-21T12:46:53;8.57;;;3.75;;
23472;SDS011;11909;52.516;13.564;2023-08-21T12:49:21;4.03;;;2.33;;
23472;SDS011;11909;52.516;13.564;2023-08-21T12:51:50;4.80;;;1.40;;
23472;SDS011;11909;52.516;13.564;2023-08-21T12:54:18;4.63;;;1.58;;
23472;SDS011;11909;52.516;13.564;2023-08-21T12:56:46;6.80;;;1.58;;
23472;SDS011;11909;52.516;13.564;2023-08-21T12:59:13;4.57;;;1.20;;
23472;SDS011;11909;52.516;13.564;2023-08-21T13:01:45;11.85;;;1.60;;
23472;SDS011;11909;52.516;13.564;2023-08-21T13:04:12;3.55;;;1.17;;
23472;SDS011;11909;52.516;13.564;2023-08-21T13:06:40;4.65;;;1.25;;
23472;SDS011;11909;52.516;13.564;2023-08-21T13:09:10;4.43;;;1.35;;
23472;SDS011;11909;52.516;13.564;2023-08-21T13:11:38;4.97;;;1.52;;
23472;SDS011;11909;52.516;13.564;2023-08-21T13:14:06;4.57;;;1.42;;
23472;SDS011;11909;52.516;13.564;2023-08-21T13:16:34;5.38;;;1.40;;
23472;SDS011;11909;52.516;13.564;2023-08-21T13:19:02;3.28;;;1.20;;
23472;SDS011;11909;52.516;13.564;2023-08-21T13:21:30;3.50;;;1.23;;
23472;SDS011;11909;52.516;13.564;2023-08-21T13:23:57;4.45;;;1.20;;
23472;SDS011;11909;52.516;13.564;2023-08-21T13:26:30;3.05;;;1.20;;
23472;SDS011;11909;52.516;13.564;2023-08-21T13:28:58;4.03;;;1.55;;
23472;SDS011;11909;52.516;13.564;2023-08-21T13:31:27;2.88;;;1.50;;
23472;SDS011;11909;52.516;13.564;2023-08-21T13:33:55;10.00;;;4.68;;
23472;SDS011;11909;52.516;13.564;2023-08-21T13:36:23;7.55;;;1.40;;
23472;SDS011;11909;52.516;13.564;2023-08-21T13:38:55;3.78;;;1.50;;
23472;SDS011;11909;52.516;13.564;2023-08-21T13:41:23;4.95;;;1.30;;
23472;SDS011;11909;52.516;13.564;2023-08-21T13:43:52;5.47;;;1.52;;
23472;SDS011;11909;52.516;13.564;2023-08-21T13:46:21;7.13;;;1.33;;
23472;SDS011;11909;52.516;13.564;2023-08-21T13:48:48;3.22;;;1.17;;
23472;SDS011;11909;52.516;13.564;2023-08-21T13:51:16;6.68;;;1.48;;
23472;SDS011;11909;52.516;13.564;2023-08-21T13:53:47;5.55;;;1.33;;
23472;SDS011;11909;52.516;13.564;2023-08-21T13:56:15;5.50;;;1.20;;
23472;SDS011;11909;52.516;13.564;2023-08-21T13:58:43;3.38;;;1.50;;
23472;SDS011;11909;52.516;13.564;2023-08-21T14:01:12;4.05;;;1.42;;
23472;SDS011;11909;52.516;13.564;2023-08-21T14:03:40;6.65;;;1.50;;
23472;SDS011;11909;52.516;13.564;2023-08-21T14:06:08;3.95;;;1.40;;
23472;SDS011;11909;52.516;13.564;2023-08-21T14:08:38;1.85;;;1.00;;
23472;SDS011;11909;52.516;13.564;2023-08-21T14:11:06;4.53;;;1.48;;
23472;SDS011;11909;52.516;13.564;2023-08-21T14:13:34;4.25;;;1.10;;
23472;SDS011;11909;52.516;13.564;2023-08-21T14:16:02;4.55;;;1.30;;
23472;SDS011;11909;52.516;13.564;2023-08-21T14:18:32;4.28;;;0.98;;
23472;SDS011;11909;52.516;13.564;2023-08-21T14:21:00;2.67;;;1.10;;
23472;SDS011;11909;52.516;13.564;2023-08-21T14:23:27;3.88;;;1.23;;
23472;SDS011;11909;52.516;13.564;2023-08-21T14:25:59;3.30;;;1.30;;
23472;SDS011;11909;52.516;13.564;2023-08-21T14:28:27;4.05;;;1.15;;
23472;SDS011;11909;52.516;13.564;2023-08-21T14:30:55;4.95;;;1.20;;
23472;SDS011;11909;52.516;13.564;2023-08-21T14:33:23;1.98;;;0.98;;
23472;SDS011;11909;52.516;13.564;2023-08-21T14:35:52;3.95;;;1.15;;
23472;SDS011;11909;52.516;13.564;2023-08-21T14:38:20;3.67;;;1.30;;
23472;SDS011;11909;52.516;13.564;2023-08-21T14:40:48;3.40;;;1.30;;
23472;SDS011;11909;52.516;13.564;2023-08-21T14:43:18;5.00;;;1.00;;
23472;SDS011;11909;52.516;13.564;2023-08-21T14:45:46;3.25;;;1.33;;
23472;SDS011;11909;52.516;13.564;2023-08-21T14:48:14;2.05;;;0.93;;
23472;SDS011;11909;52.516;13.564;2023-08-21T14:50:42;2.70;;;1.10;;
23472;SDS011;11909;52.516;13.564;2023-08-21T14:53:11;4.88;;;1.10;;